sensor_id;sensor_type;location;lat;lon;timestamp;temperature;humidity
56538;DHT22;42435;53.292;6.000;2023-10-19T00:00:36;9.20;79.70
56538;DHT22;42435;53.292;6.000;2023-10-19T00:03:04;9.20;79.90
56538;DHT22;42435;53.292;6.000;2023-10-19T00:05:32;9.20;80.10
56538;DHT22;42435;53.292;6.000;2023-10-19T00:07:59;9.20;80.20
56538;DHT22;42435;53.292;6.000;2023-10-19T00:10:27;9.10;80.30
56538;DHT22;42435;53.292;6.000;2023-10-19T00:13:00;9.10;80.50
56538;DHT22;42435;53.292;6.000;2023-10-19T00:15:31;9.10;80.70
56538;DHT22;42435;53.292;6.000;2023-10-19T00:17:58;9.10;80.80
56538;DHT22;42435;53.292;6.000;2023-10-19T00:20:31;9.10;80.90
56538;DHT22;42435;53.292;6.000;2023-10-19T00:23:32;9.10;81.00
56538;DHT22;42435;53.292;6.000;2023-10-19T00:25:59;9.00;81.00
56538;DHT22;42435;53.292;6.000;2023-10-19T00:28:26;9.00;81.20
56538;DHT22;42435;53.292;6.000;2023-10-19T00:30:55;9.00;81.30
56538;DHT22;42435;53.292;6.000;2023-10-19T00:33:28;9.00;81.40
56538;DHT22;42435;53.292;6.000;2023-10-19T00:35:54;9.00;81.60
56538;DHT22;42435;53.292;6.000;2023-10-19T00:38:36;9.00;81.70
56538;DHT22;42435;53.292;6.000;2023-10-19T00:41:02;9.00;81.80
56538;DHT22;42435;53.292;6.000;2023-10-19T00:43:31;9.00;81.90
56538;DHT22;42435;53.292;6.000;2023-10-19T00:46:08;8.90;82.00
56538;DHT22;42435;53.292;6.000;2023-10-19T00:48:56;8.90;82.10
56538;DHT22;42435;53.292;6.000;2023-10-19T00:51:47;8.90;82.30
56538;DHT22;42435;53.292;6.000;2023-10-19T00:54:43;8.90;82.60
56538;DHT22;42435;53.292;6.000;2023-10-19T00:57:12;8.90;82.40
56538;DHT22;42435;53.292;6.000;2023-10-19T00:59:39;8.90;82.60
56538;DHT22;42435;53.292;6.000;2023-10-19T01:02:09;8.90;82.70
56538;DHT22;42435;53.292;6.000;2023-10-19T01:04:43;8.80;83.00
56538;DHT22;42435;53.292;6.000;2023-10-19T01:07:10;8.90;83.10
56538;DHT22;42435;53.292;6.000;2023-10-19T01:09:47;8.80;83.20
56538;DHT22;42435;53.292;6.000;2023-10-19T01:12:12;8.80;83.40
56538;DHT22;42435;53.292;6.000;2023-10-19T01:15:04;8.80;83.40
56538;DHT22;42435;53.292;6.000;2023-10-19T01:17:39;8.80;83.60
56538;DHT22;42435;53.292;6.000;2023-10-19T01:20:15;8.80;83.50
56538;DHT22;42435;53.292;6.000;2023-10-19T01:23:06;8.80;83.60
56538;DHT22;42435;53.292;6.000;2023-10-19T01:25:45;8.80;83.70
56538;DHT22;42435;53.292;6.000;2023-10-19T01:28:20;8.90;83.80
56538;DHT22;42435;53.292;6.000;2023-10-19T01:30:47;8.90;83.80
56538;DHT22;42435;53.292;6.000;2023-10-19T01:33:17;8.90;83.80
56538;DHT22;42435;53.292;6.000;2023-10-19T01:35:44;8.90;83.90
56538;DHT22;42435;53.292;6.000;2023-10-19T01:38:29;8.90;84.00
56538;DHT22;42435;53.292;6.000;2023-10-19T01:40:59;8.90;84.00
56538;DHT22;42435;53.292;6.000;2023-10-19T01:43:26;8.80;84.10
56538;DHT22;42435;53.292;6.000;2023-10-19T01:46:00;8.90;84.20
56538;DHT22;42435;53.292;6.000;2023-10-19T01:48:37;8.90;84.20
56538;DHT22;42435;53.292;6.000;2023-10-19T01:51:05;8.90;84.30
56538;DHT22;42435;53.292;6.000;2023-10-19T01:53:34;8.90;84.40
56538;DHT22;42435;53.292;6.000;2023-10-19T01:56:05;8.90;84.40
56538;DHT22;42435;53.292;6.000;2023-10-19T01:58:37;8.90;84.40
56538;DHT22;42435;53.292;6.000;2023-10-19T02:01:05;8.90;84.40
56538;DHT22;42435;53.292;6.000;2023-10-19T02:03:40;8.90;84.50
56538;DHT22;42435;53.292;6.000;2023-10-19T02:06:08;9.00;84.50
56538;DHT22;42435;53.292;6.000;2023-10-19T02:08:58;8.90;84.60
56538;DHT22;42435;53.292;6.000;2023-10-19T02:11:26;9.00;84.80
56538;DHT22;42435;53.292;6.000;2023-10-19T02:13:55;8.90;84.70
56538;DHT22;42435;53.292;6.000;2023-10-19T02:16:22;9.00;84.70
56538;DHT22;42435;53.292;6.000;2023-10-19T02:18:51;9.00;84.80
56538;DHT22;42435;53.292;6.000;2023-10-19T02:21:17;9.00;84.80
56538;DHT22;42435;53.292;6.000;2023-10-19T02:23:54;9.00;84.80
56538;DHT22;42435;53.292;6.000;2023-10-19T02:26:20;9.00;84.80
56538;DHT22;42435;53.292;6.000;2023-10-19T02:28:51;9.10;84.90
56538;DHT22;42435;53.292;6.000;2023-10-19T02:31:18;9.00;84.80
56538;DHT22;42435;53.292;6.000;2023-10-19T02:33:45;9.00;84.90
56538;DHT22;42435;53.292;6.000;2023-10-19T02:36:13;9.00;84.90
56538;DHT22;42435;53.292;6.000;2023-10-19T02:38:39;9.00;85.00
56538;DHT22;42435;53.292;6.000;2023-10-19T02:41:05;9.00;85.00
56538;DHT22;42435;53.292;6.000;2023-10-19T02:43:31;9.10;85.10
56538;DHT22;42435;53.292;6.000;2023-10-19T02:45:59;9.10;85.10
56538;DHT22;42435;53.292;6.000;2023-10-19T02:48:25;9.10;85.10
56538;DHT22;42435;53.292;6.000;2023-10-19T02:50:50;9.10;85.10
56538;DHT22;42435;53.292;6.000;2023-10-19T02:53:16;9.10;85.20
56538;DHT22;42435;53.292;6.000;2023-10-19T02:55:44;9.20;85.20
56538;DHT22;42435;53.292;6.000;2023-10-19T02:58:10;9.10;85.20
56538;DHT22;42435;53.292;6.000;2023-10-19T03:00:39;9.20;85.30
56538;DHT22;42435;53.292;6.000;2023-10-19T03:03:08;9.20;85.30
56538;DHT22;42435;53.292;6.000;2023-10-19T03:05:33;9.20;85.30
56538;DHT22;42435;53.292;6.000;2023-10-19T03:08:01;9.20;85.30
56538;DHT22;42435;53.292;6.000;2023-10-19T03:10:31;9.20;85.40
56538;DHT22;42435;53.292;6.000;2023-10-19T03:13:08;9.20;85.40
56538;DHT22;42435;53.292;6.000;2023-10-19T03:15:34;9.20;85.40
56538;DHT22;42435;53.292;6.000;2023-10-19T03:18:01;9.20;85.40
56538;DHT22;42435;53.292;6.000;2023-10-19T03:20:30;9.20;85.40
56538;DHT22;42435;53.292;6.000;2023-10-19T03:22:59;9.20;85.40
56538;DHT22;42435;53.292;6.000;2023-10-19T03:25:27;9.20;85.40
56538;DHT22;42435;53.292;6.000;2023-10-19T03:28:11;9.20;85.50
56538;DHT22;42435;53.292;6.000;2023-10-19T03:30:37;9.20;85.40
56538;DHT22;42435;53.292;6.000;2023-10-19T03:33:06;9.20;85.40
56538;DHT22;42435;53.292;6.000;2023-10-19T03:35:36;9.20;85.40
56538;DHT22;42435;53.292;6.000;2023-10-19T03:38:03;9.20;85.40
56538;DHT22;42435;53.292;6.000;2023-10-19T03:40:34;9.20;85.50
56538;DHT22;42435;53.292;6.000;2023-10-19T03:43:03;9.20;85.50
56538;DHT22;42435;53.292;6.000;2023-10-19T03:45:39;9.20;85.50
56538;DHT22;42435;53.292;6.000;2023-10-19T03:48:10;9.20;85.50
56538;DHT22;42435;53.292;6.000;2023-10-19T03:50:35;9.20;85.60
56538;DHT22;42435;53.292;6.000;2023-10-19T03:53:02;9.20;85.60
56538;DHT22;42435;53.292;6.000;2023-10-19T03:55:29;9.20;85.60
56538;DHT22;42435;53.292;6.000;2023-10-19T03:57:55;9.20;85.70
56538;DHT22;42435;53.292;6.000;2023-10-19T04:00:22;9.20;85.70
56538;DHT22;42435;53.292;6.000;2023-10-19T04:02:51;9.20;85.70
56538;DHT22;42435;53.292;6.000;2023-10-19T04:05:21;9.20;85.80
56538;DHT22;42435;53.292;6.000;2023-10-19T04:07:48;9.20;85.80
56538;DHT22;42435;53.292;6.000;2023-10-19T04:10:20;9.20;85.90
56538;DHT22;42435;53.292;6.000;2023-10-19T04:12:55;9.20;85.90
56538;DHT22;42435;53.292;6.000;2023-10-19T04:15:20;9.20;85.90
56538;DHT22;42435;53.292;6.000;2023-10-19T04:17:48;9.20;85.90
56538;DHT22;42435;53.292;6.000;2023-10-19T04:20:18;9.20;85.90
56538;DHT22;42435;53.292;6.000;2023-10-19T04:22:45;9.20;85.90
56538;DHT22;42435;53.292;6.000;2023-10-19T04:25:11;9.30;86.10
56538;DHT22;42435;53.292;6.000;2023-10-19T04:27:44;9.20;86.10
56538;DHT22;42435;53.292;6.000;2023-10-19T04:30:10;9.30;86.10
56538;DHT22;42435;53.292;6.000;2023-10-19T04:32:48;9.30;86.10
56538;DHT22;42435;53.292;6.000;2023-10-19T04:35:18;9.30;86.20
56538;DHT22;42435;53.292;6.000;2023-10-19T04:37:52;9.30;86.20
56538;DHT22;42435;53.292;6.000;2023-10-19T04:40:19;9.30;86.20
56538;DHT22;42435;53.292;6.000;2023-10-19T04:42:45;9.40;86.20
56538;DHT22;42435;53.292;6.000;2023-10-19T04:45:12;9.40;86.20
56538;DHT22;42435;53.292;6.000;2023-10-19T04:47:38;9.40;86.20
56538;DHT22;42435;53.292;6.000;2023-10-19T04:50:07;9.40;86.20
56538;DHT22;42435;53.292;6.000;2023-10-19T04:52:33;9.40;86.30
56538;DHT22;42435;53.292;6.000;2023-10-19T04:55:00;9.40;86.30
56538;DHT22;42435;53.292;6.000;2023-10-19T04:57:26;9.50;86.30
56538;DHT22;42435;53.292;6.000;2023-10-19T04:59:52;9.40;86.20
56538;DHT22;42435;53.292;6.000;2023-10-19T05:02:18;9.40;86.30
56538;DHT22;42435;53.292;6.000;2023-10-19T05:04:44;9.50;86.30
56538;DHT22;42435;53.292;6.000;2023-10-19T05:07:10;9.50;86.30
56538;DHT22;42435;53.292;6.000;2023-10-19T05:09:45;9.50;86.30
56538;DHT22;42435;53.292;6.000;2023-10-19T05:12:12;9.50;86.40
56538;DHT22;42435;53.292;6.000;2023-10-19T05:14:38;9.50;86.30
56538;DHT22;42435;53.292;6.000;2023-10-19T05:17:04;9.50;86.30
56538;DHT22;42435;53.292;6.000;2023-10-19T05:19:31;9.50;86.30
56538;DHT22;42435;53.292;6.000;2023-10-19T05:21:57;9.50;86.40
56538;DHT22;42435;53.292;6.000;2023-10-19T05:24:22;9.50;86.40
56538;DHT22;42435;53.292;6.000;2023-10-19T05:26:49;9.50;86.50
56538;DHT22;42435;53.292;6.000;2023-10-19T05:29:15;9.50;86.50
56538;DHT22;42435;53.292;6.000;2023-10-19T05:31:41;9.50;86.40
56538;DHT22;42435;53.292;6.000;2023-10-19T05:34:06;9.50;86.50
56538;DHT22;42435;53.292;6.000;2023-10-19T05:36:33;9.50;86.60
56538;DHT22;42435;53.292;6.000;2023-10-19T05:38:59;9.50;86.50
56538;DHT22;42435;53.292;6.000;2023-10-19T05:41:25;9.50;86.60
56538;DHT22;42435;53.292;6.000;2023-10-19T05:43:52;9.50;86.60
56538;DHT22;42435;53.292;6.000;2023-10-19T05:46:18;9.50;86.60
56538;DHT22;42435;53.292;6.000;2023-10-19T05:48:47;9.60;86.70
56538;DHT22;42435;53.292;6.000;2023-10-19T05:51:14;9.60;86.70
56538;DHT22;42435;53.292;6.000;2023-10-19T05:53:40;9.60;86.60
56538;DHT22;42435;53.292;6.000;2023-10-19T05:56:07;9.70;86.60
56538;DHT22;42435;53.292;6.000;2023-10-19T05:58:32;9.70;86.70
56538;DHT22;42435;53.292;6.000;2023-10-19T06:00:59;9.70;86.60
56538;DHT22;42435;53.292;6.000;2023-10-19T06:03:24;9.70;86.50
56538;DHT22;42435;53.292;6.000;2023-10-19T06:05:50;9.70;86.40
56538;DHT22;42435;53.292;6.000;2023-10-19T06:08:15;9.70;86.50
56538;DHT22;42435;53.292;6.000;2023-10-19T06:10:41;9.70;86.50
56538;DHT22;42435;53.292;6.000;2023-10-19T06:13:07;9.70;86.50
56538;DHT22;42435;53.292;6.000;2023-10-19T06:15:35;9.70;86.40
56538;DHT22;42435;53.292;6.000;2023-10-19T06:18:01;9.70;86.40
56538;DHT22;42435;53.292;6.000;2023-10-19T06:20:26;9.70;86.40
56538;DHT22;42435;53.292;6.000;2023-10-19T06:22:57;9.70;86.50
56538;DHT22;42435;53.292;6.000;2023-10-19T06:25:29;9.70;86.50
56538;DHT22;42435;53.292;6.000;2023-10-19T06:27:55;9.70;86.50
56538;DHT22;42435;53.292;6.000;2023-10-19T06:30:23;9.70;86.50
56538;DHT22;42435;53.292;6.000;2023-10-19T06:32:50;9.70;86.50
56538;DHT22;42435;53.292;6.000;2023-10-19T06:35:17;9.70;86.50
56538;DHT22;42435;53.292;6.000;2023-10-19T06:37:44;9.70;86.50
56538;DHT22;42435;53.292;6.000;2023-10-19T06:40:10;9.70;86.60
56538;DHT22;42435;53.292;6.000;2023-10-19T06:42:37;9.70;86.60
56538;DHT22;42435;53.292;6.000;2023-10-19T06:45:05;9.70;86.60
56538;DHT22;42435;53.292;6.000;2023-10-19T06:47:32;9.70;86.70
56538;DHT22;42435;53.292;6.000;2023-10-19T06:50:03;9.70;86.70
56538;DHT22;42435;53.292;6.000;2023-10-19T06:52:30;9.70;86.70
56538;DHT22;42435;53.292;6.000;2023-10-19T06:54:58;9.70;86.70
56538;DHT22;42435;53.292;6.000;2023-10-19T06:57:26;9.80;86.60
56538;DHT22;42435;53.292;6.000;2023-10-19T06:59:53;9.80;86.60
56538;DHT22;42435;53.292;6.000;2023-10-19T07:02:18;9.80;86.70
56538;DHT22;42435;53.292;6.000;2023-10-19T07:04:46;9.80;86.70
56538;DHT22;42435;53.292;6.000;2023-10-19T07:07:13;9.90;86.70
56538;DHT22;42435;53.292;6.000;2023-10-19T07:09:39;9.90;86.70
56538;DHT22;42435;53.292;6.000;2023-10-19T07:12:07;9.90;86.70
56538;DHT22;42435;53.292;6.000;2023-10-19T07:14:33;9.90;86.70
56538;DHT22;42435;53.292;6.000;2023-10-19T07:17:00;9.90;86.70
56538;DHT22;42435;53.292;6.000;2023-10-19T07:19:26;9.90;86.70
56538;DHT22;42435;53.292;6.000;2023-10-19T07:21:51;9.90;86.70
56538;DHT22;42435;53.292;6.000;2023-10-19T07:24:23;9.90;86.60
56538;DHT22;42435;53.292;6.000;2023-10-19T07:26:50;9.90;86.60
56538;DHT22;42435;53.292;6.000;2023-10-19T07:29:22;9.90;86.60
56538;DHT22;42435;53.292;6.000;2023-10-19T07:31:47;9.90;86.60
56538;DHT22;42435;53.292;6.000;2023-10-19T07:34:13;9.90;86.60
56538;DHT22;42435;53.292;6.000;2023-10-19T07:36:41;10.00;86.70
56538;DHT22;42435;53.292;6.000;2023-10-19T07:39:08;10.00;86.70
56538;DHT22;42435;53.292;6.000;2023-10-19T07:41:42;10.00;86.70
56538;DHT22;42435;53.292;6.000;2023-10-19T07:44:08;10.00;86.60
56538;DHT22;42435;53.292;6.000;2023-10-19T07:46:34;10.00;86.60
56538;DHT22;42435;53.292;6.000;2023-10-19T07:48:59;10.00;86.60
56538;DHT22;42435;53.292;6.000;2023-10-19T07:51:26;10.10;86.70
56538;DHT22;42435;53.292;6.000;2023-10-19T07:53:51;10.10;86.70
56538;DHT22;42435;53.292;6.000;2023-10-19T07:56:17;10.10;86.60
56538;DHT22;42435;53.292;6.000;2023-10-19T07:58:43;10.10;86.50
56538;DHT22;42435;53.292;6.000;2023-10-19T08:01:08;10.10;86.50
56538;DHT22;42435;53.292;6.000;2023-10-19T08:03:34;10.10;86.50
56538;DHT22;42435;53.292;6.000;2023-10-19T08:06:01;10.00;86.50
56538;DHT22;42435;53.292;6.000;2023-10-19T08:08:26;10.10;86.50
56538;DHT22;42435;53.292;6.000;2023-10-19T08:10:59;10.00;86.50
56538;DHT22;42435;53.292;6.000;2023-10-19T08:13:25;10.00;86.60
56538;DHT22;42435;53.292;6.000;2023-10-19T08:15:52;10.00;86.60
56538;DHT22;42435;53.292;6.000;2023-10-19T08:18:17;10.00;86.50
56538;DHT22;42435;53.292;6.000;2023-10-19T08:20:44;10.00;86.60
56538;DHT22;42435;53.292;6.000;2023-10-19T08:23:14;10.00;86.60
56538;DHT22;42435;53.292;6.000;2023-10-19T08:25:42;10.00;86.60
56538;DHT22;42435;53.292;6.000;2023-10-19T08:28:09;10.00;86.70
56538;DHT22;42435;53.292;6.000;2023-10-19T08:30:36;10.10;86.80
56538;DHT22;42435;53.292;6.000;2023-10-19T08:33:03;10.20;86.80
56538;DHT22;42435;53.292;6.000;2023-10-19T08:35:29;10.20;86.90
56538;DHT22;42435;53.292;6.000;2023-10-19T08:37:59;10.20;86.80
56538;DHT22;42435;53.292;6.000;2023-10-19T08:40:30;10.20;86.80
56538;DHT22;42435;53.292;6.000;2023-10-19T08:42:56;10.30;86.80
56538;DHT22;42435;53.292;6.000;2023-10-19T08:45:22;10.30;86.80
56538;DHT22;42435;53.292;6.000;2023-10-19T08:47:58;10.30;86.70
56538;DHT22;42435;53.292;6.000;2023-10-19T08:50:32;10.30;86.80
56538;DHT22;42435;53.292;6.000;2023-10-19T08:53:03;10.30;86.70
56538;DHT22;42435;53.292;6.000;2023-10-19T08:55:30;10.30;86.70
56538;DHT22;42435;53.292;6.000;2023-10-19T08:57:55;10.40;86.70
56538;DHT22;42435;53.292;6.000;2023-10-19T09:00:23;10.40;86.70
56538;DHT22;42435;53.292;6.000;2023-10-19T09:02:51;10.40;86.70
56538;DHT22;42435;53.292;6.000;2023-10-19T09:05:18;10.40;86.70
56538;DHT22;42435;53.292;6.000;2023-10-19T09:07:52;10.40;86.60
56538;DHT22;42435;53.292;6.000;2023-10-19T09:10:25;10.40;86.60
56538;DHT22;42435;53.292;6.000;2023-10-19T09:13:07;10.40;86.60
56538;DHT22;42435;53.292;6.000;2023-10-19T09:15:38;10.40;86.60
56538;DHT22;42435;53.292;6.000;2023-10-19T09:20:40;10.40;86.60
56538;DHT22;42435;53.292;6.000;2023-10-19T09:23:07;10.50;86.60
56538;DHT22;42435;53.292;6.000;2023-10-19T09:25:33;10.50;86.60
56538;DHT22;42435;53.292;6.000;2023-10-19T09:28:01;10.50;86.60
56538;DHT22;42435;53.292;6.000;2023-10-19T09:30:29;10.50;86.60
56538;DHT22;42435;53.292;6.000;2023-10-19T09:32:57;10.50;86.60
56538;DHT22;42435;53.292;6.000;2023-10-19T09:35:24;10.60;86.60
56538;DHT22;42435;53.292;6.000;2023-10-19T09:37:55;10.60;86.60
56538;DHT22;42435;53.292;6.000;2023-10-19T09:40:23;10.50;86.50
56538;DHT22;42435;53.292;6.000;2023-10-19T09:42:51;10.50;86.50
56538;DHT22;42435;53.292;6.000;2023-10-19T09:45:19;10.50;86.60
56538;DHT22;42435;53.292;6.000;2023-10-19T09:47:50;10.50;86.60
56538;DHT22;42435;53.292;6.000;2023-10-19T09:50:19;10.50;86.70
56538;DHT22;42435;53.292;6.000;2023-10-19T09:52:45;10.60;86.70
56538;DHT22;42435;53.292;6.000;2023-10-19T09:55:30;10.60;86.70
56538;DHT22;42435;53.292;6.000;2023-10-19T09:58:06;10.60;86.70
56538;DHT22;42435;53.292;6.000;2023-10-19T10:00:33;10.60;86.70
56538;DHT22;42435;53.292;6.000;2023-10-19T10:03:00;10.60;86.70
56538;DHT22;42435;53.292;6.000;2023-10-19T10:10:44;10.70;86.80
56538;DHT22;42435;53.292;6.000;2023-10-19T10:15:58;10.70;86.90
56538;DHT22;42435;53.292;6.000;2023-10-19T10:18:24;10.70;86.80
56538;DHT22;42435;53.292;6.000;2023-10-19T10:21:13;10.70;86.90
56538;DHT22;42435;53.292;6.000;2023-10-19T10:24:00;10.80;87.00
56538;DHT22;42435;53.292;6.000;2023-10-19T10:26:58;10.90;87.00
56538;DHT22;42435;53.292;6.000;2023-10-19T10:29:24;10.90;86.90
56538;DHT22;42435;53.292;6.000;2023-10-19T10:31:50;10.90;86.80
56538;DHT22;42435;53.292;6.000;2023-10-19T10:37:07;11.00;87.00
56538;DHT22;42435;53.292;6.000;2023-10-19T10:39:34;11.00;86.80
56538;DHT22;42435;53.292;6.000;2023-10-19T10:42:03;11.00;86.70
56538;DHT22;42435;53.292;6.000;2023-10-19T10:44:43;11.00;86.60
56538;DHT22;42435;53.292;6.000;2023-10-19T10:47:11;11.10;86.60
56538;DHT22;42435;53.292;6.000;2023-10-19T10:49:53;11.10;86.60
56538;DHT22;42435;53.292;6.000;2023-10-19T10:52:26;11.10;86.60
56538;DHT22;42435;53.292;6.000;2023-10-19T10:54:52;11.10;86.60
56538;DHT22;42435;53.292;6.000;2023-10-19T10:57:19;11.20;86.60
56538;DHT22;42435;53.292;6.000;2023-10-19T10:59:45;11.20;86.50
56538;DHT22;42435;53.292;6.000;2023-10-19T11:02:18;11.20;86.50
56538;DHT22;42435;53.292;6.000;2023-10-19T11:04:44;11.20;86.50
56538;DHT22;42435;53.292;6.000;2023-10-19T11:07:18;11.20;86.50
56538;DHT22;42435;53.292;6.000;2023-10-19T11:09:45;11.30;86.50
56538;DHT22;42435;53.292;6.000;2023-10-19T11:12:14;11.20;86.30
56538;DHT22;42435;53.292;6.000;2023-10-19T11:14:58;11.30;86.50
56538;DHT22;42435;53.292;6.000;2023-10-19T11:17:42;11.30;86.40
56538;DHT22;42435;53.292;6.000;2023-10-19T11:20:09;11.40;86.30
56538;DHT22;42435;53.292;6.000;2023-10-19T11:22:51;11.40;86.20
56538;DHT22;42435;53.292;6.000;2023-10-19T11:25:19;11.40;86.30
56538;DHT22;42435;53.292;6.000;2023-10-19T11:27:45;11.40;86.20
56538;DHT22;42435;53.292;6.000;2023-10-19T11:30:11;11.40;86.20
56538;DHT22;42435;53.292;6.000;2023-10-19T11:32:38;11.50;86.20
56538;DHT22;42435;53.292;6.000;2023-10-19T11:35:03;11.50;86.30
56538;DHT22;42435;53.292;6.000;2023-10-19T11:37:29;11.50;86.20
56538;DHT22;42435;53.292;6.000;2023-10-19T11:39:55;11.50;86.10
56538;DHT22;42435;53.292;6.000;2023-10-19T11:42:20;11.50;86.00
56538;DHT22;42435;53.292;6.000;2023-10-19T11:44:46;11.50;86.00
56538;DHT22;42435;53.292;6.000;2023-10-19T11:47:12;11.60;86.10
56538;DHT22;42435;53.292;6.000;2023-10-19T11:49:39;11.60;86.10
56538;DHT22;42435;53.292;6.000;2023-10-19T11:52:08;11.60;86.00
56538;DHT22;42435;53.292;6.000;2023-10-19T11:54:34;11.60;85.90
56538;DHT22;42435;53.292;6.000;2023-10-19T11:57:00;11.60;85.80
56538;DHT22;42435;53.292;6.000;2023-10-19T11:59:28;11.50;85.80
56538;DHT22;42435;53.292;6.000;2023-10-19T12:01:54;11.60;85.80
56538;DHT22;42435;53.292;6.000;2023-10-19T12:04:20;11.60;85.70
56538;DHT22;42435;53.292;6.000;2023-10-19T12:06:45;11.60;85.70
56538;DHT22;42435;53.292;6.000;2023-10-19T12:09:14;11.50;85.70
56538;DHT22;42435;53.292;6.000;2023-10-19T12:11:44;11.50;85.60
56538;DHT22;42435;53.292;6.000;2023-10-19T12:14:10;11.50;85.50
56538;DHT22;42435;53.292;6.000;2023-10-19T12:16:40;11.50;85.40
56538;DHT22;42435;53.292;6.000;2023-10-19T12:19:06;11.40;85.30
56538;DHT22;42435;53.292;6.000;2023-10-19T12:21:33;11.40;85.30
56538;DHT22;42435;53.292;6.000;2023-10-19T12:23:59;11.40;85.30
56538;DHT22;42435;53.292;6.000;2023-10-19T12:26:26;11.40;85.30
56538;DHT22;42435;53.292;6.000;2023-10-19T12:28:52;11.30;85.20
56538;DHT22;42435;53.292;6.000;2023-10-19T12:31:18;11.30;85.30
56538;DHT22;42435;53.292;6.000;2023-10-19T12:33:44;11.30;85.30
56538;DHT22;42435;53.292;6.000;2023-10-19T12:36:10;11.20;85.30
56538;DHT22;42435;53.292;6.000;2023-10-19T12:38:54;11.30;85.50
56538;DHT22;42435;53.292;6.000;2023-10-19T12:41:20;11.30;85.30
56538;DHT22;42435;53.292;6.000;2023-10-19T12:43:47;11.20;85.30
56538;DHT22;42435;53.292;6.000;2023-10-19T12:46:13;11.20;85.30
56538;DHT22;42435;53.292;6.000;2023-10-19T12:48:45;11.20;85.40
56538;DHT22;42435;53.292;6.000;2023-10-19T12:51:14;11.20;85.30
56538;DHT22;42435;53.292;6.000;2023-10-19T12:53:40;11.10;85.10
56538;DHT22;42435;53.292;6.000;2023-10-19T12:56:06;11.10;85.10
56538;DHT22;42435;53.292;6.000;2023-10-19T12:58:33;11.00;85.30
56538;DHT22;42435;53.292;6.000;2023-10-19T13:00:59;11.00;85.30
56538;DHT22;42435;53.292;6.000;2023-10-19T13:03:25;11.00;85.40
56538;DHT22;42435;53.292;6.000;2023-10-19T13:05:55;11.00;85.40
56538;DHT22;42435;53.292;6.000;2023-10-19T13:08:23;11.00;85.40
56538;DHT22;42435;53.292;6.000;2023-10-19T13:10:53;11.00;85.40
56538;DHT22;42435;53.292;6.000;2023-10-19T13:13:19;11.00;85.30
56538;DHT22;42435;53.292;6.000;2023-10-19T13:15:48;10.90;85.30
56538;DHT22;42435;53.292;6.000;2023-10-19T13:18:14;10.90;85.30
56538;DHT22;42435;53.292;6.000;2023-10-19T13:20:46;10.90;85.30
56538;DHT22;42435;53.292;6.000;2023-10-19T13:23:11;10.80;85.30
56538;DHT22;42435;53.292;6.000;2023-10-19T13:25:38;10.80;85.30
56538;DHT22;42435;53.292;6.000;2023-10-19T13:28:17;10.80;85.40
56538;DHT22;42435;53.292;6.000;2023-10-19T13:30:50;10.80;85.50
56538;DHT22;42435;53.292;6.000;2023-10-19T13:33:17;10.80;85.50
56538;DHT22;42435;53.292;6.000;2023-10-19T13:35:44;10.70;85.50
56538;DHT22;42435;53.292;6.000;2023-10-19T13:38:11;10.70;85.50
56538;DHT22;42435;53.292;6.000;2023-10-19T13:40:39;10.60;85.60
56538;DHT22;42435;53.292;6.000;2023-10-19T13:43:06;10.50;85.60
56538;DHT22;42435;53.292;6.000;2023-10-19T13:45:33;10.50;85.80
56538;DHT22;42435;53.292;6.000;2023-10-19T13:48:03;10.50;85.90
56538;DHT22;42435;53.292;6.000;2023-10-19T13:50:34;10.50;86.00
56538;DHT22;42435;53.292;6.000;2023-10-19T13:53:00;10.50;85.90
56538;DHT22;42435;53.292;6.000;2023-10-19T13:55:28;10.50;85.90
56538;DHT22;42435;53.292;6.000;2023-10-19T13:57:54;10.40;85.90
56538;DHT22;42435;53.292;6.000;2023-10-19T14:00:22;10.40;86.00
56538;DHT22;42435;53.292;6.000;2023-10-19T14:02:58;10.40;86.00
56538;DHT22;42435;53.292;6.000;2023-10-19T14:05:25;10.40;86.10
56538;DHT22;42435;53.292;6.000;2023-10-19T14:07:51;10.40;86.10
56538;DHT22;42435;53.292;6.000;2023-10-19T14:10:17;10.40;86.20
56538;DHT22;42435;53.292;6.000;2023-10-19T14:12:46;10.30;86.20
56538;DHT22;42435;53.292;6.000;2023-10-19T14:15:19;10.30;86.30
56538;DHT22;42435;53.292;6.000;2023-10-19T14:17:46;10.30;86.40
56538;DHT22;42435;53.292;6.000;2023-10-19T14:20:14;10.20;86.40
56538;DHT22;42435;53.292;6.000;2023-10-19T14:22:52;10.20;86.40
56538;DHT22;42435;53.292;6.000;2023-10-19T14:25:21;10.20;86.50
56538;DHT22;42435;53.292;6.000;2023-10-19T14:27:51;10.20;86.50
56538;DHT22;42435;53.292;6.000;2023-10-19T14:30:21;10.20;86.60
56538;DHT22;42435;53.292;6.000;2023-10-19T14:32:48;10.20;86.60
56538;DHT22;42435;53.292;6.000;2023-10-19T14:35:16;10.10;86.70
56538;DHT22;42435;53.292;6.000;2023-10-19T14:37:46;10.20;86.80
56538;DHT22;42435;53.292;6.000;2023-10-19T14:40:19;10.20;86.70
56538;DHT22;42435;53.292;6.000;2023-10-19T14:42:50;10.20;86.80
56538;DHT22;42435;53.292;6.000;2023-10-19T14:45:20;10.10;86.70
56538;DHT22;42435;53.292;6.000;2023-10-19T14:47:49;10.10;86.70
56538;DHT22;42435;53.292;6.000;2023-10-19T14:50:20;10.10;86.80
56538;DHT22;42435;53.292;6.000;2023-10-19T14:52:47;10.20;86.80
56538;DHT22;42435;53.292;6.000;2023-10-19T14:55:14;10.10;86.80
56538;DHT22;42435;53.292;6.000;2023-10-19T14:57:42;10.10;86.90
56538;DHT22;42435;53.292;6.000;2023-10-19T15:00:09;10.10;86.90
56538;DHT22;42435;53.292;6.000;2023-10-19T15:02:48;10.10;86.90
56538;DHT22;42435;53.292;6.000;2023-10-19T15:05:14;10.10;86.90
56538;DHT22;42435;53.292;6.000;2023-10-19T15:07:46;10.10;87.00
56538;DHT22;42435;53.292;6.000;2023-10-19T15:10:26;10.10;87.10
56538;DHT22;42435;53.292;6.000;2023-10-19T15:12:56;10.10;87.10
56538;DHT22;42435;53.292;6.000;2023-10-19T15:15:29;10.10;87.10
56538;DHT22;42435;53.292;6.000;2023-10-19T15:17:55;10.10;87.20
56538;DHT22;42435;53.292;6.000;2023-10-19T15:20:24;10.10;87.10
56538;DHT22;42435;53.292;6.000;2023-10-19T15:22:50;10.20;87.20
56538;DHT22;42435;53.292;6.000;2023-10-19T15:25:16;10.10;87.20
56538;DHT22;42435;53.292;6.000;2023-10-19T15:27:45;10.10;87.20
56538;DHT22;42435;53.292;6.000;2023-10-19T15:30:12;10.10;87.30
56538;DHT22;42435;53.292;6.000;2023-10-19T15:32:39;10.10;87.30
56538;DHT22;42435;53.292;6.000;2023-10-19T15:35:07;10.10;87.30
56538;DHT22;42435;53.292;6.000;2023-10-19T15:37:35;10.10;87.30
56538;DHT22;42435;53.292;6.000;2023-10-19T15:40:02;10.10;87.30
56538;DHT22;42435;53.292;6.000;2023-10-19T15:42:29;10.10;87.30
56538;DHT22;42435;53.292;6.000;2023-10-19T15:44:55;10.20;87.30
56538;DHT22;42435;53.292;6.000;2023-10-19T15:47:21;10.20;87.40
56538;DHT22;42435;53.292;6.000;2023-10-19T15:52:19;10.20;87.40
56538;DHT22;42435;53.292;6.000;2023-10-19T15:54:49;10.20;87.40
56538;DHT22;42435;53.292;6.000;2023-10-19T15:57:16;10.20;87.40
56538;DHT22;42435;53.292;6.000;2023-10-19T15:59:42;10.20;87.40
56538;DHT22;42435;53.292;6.000;2023-10-19T16:02:12;10.20;87.40
56538;DHT22;42435;53.292;6.000;2023-10-19T16:04:39;10.20;87.30